sensor_id;sensor_type;location;lat;lon;timestamp;temperature;humidity
70368;DHT22;57789;53.868;10.728;2023-11-22T00:01:03;2.50;99.90
70368;DHT22;57789;53.868;10.728;2023-11-22T00:03:28;2.40;99.90
70368;DHT22;57789;53.868;10.728;2023-11-22T00:05:54;2.30;99.90
70368;DHT22;57789;53.868;10.728;2023-11-22T00:08:20;2.20;99.90
70368;DHT22;57789;53.868;10.728;2023-11-22T00:10:45;2.30;99.90
70368;DHT22;57789;53.868;10.728;2023-11-22T00:13:11;2.00;99.90
70368;DHT22;57789;53.868;10.728;2023-11-22T00:15:37;1.70;99.90
70368;DHT22;57789;53.868;10.728;2023-11-22T00:18:03;1.70;99.90
70368;DHT22;57789;53.868;10.728;2023-11-22T00:20:32;1.80;99.90
70368;DHT22;57789;53.868;10.728;2023-11-22T00:22:59;1.70;99.90
70368;DHT22;57789;53.868;10.728;2023-11-22T00:25:25;1.60;99.90
70368;DHT22;57789;53.868;10.728;2023-11-22T00:27:50;1.50;99.90
70368;DHT22;57789;53.868;10.728;2023-11-22T00:30:16;1.30;99.90
70368;DHT22;57789;53.868;10.728;2023-11-22T00:32:42;1.50;99.90
70368;DHT22;57789;53.868;10.728;2023-11-22T00:35:08;1.60;99.90
70368;DHT22;57789;53.868;10.728;2023-11-22T00:37:34;1.50;99.90
70368;DHT22;57789;53.868;10.728;2023-11-22T00:40:01;1.60;99.90
70368;DHT22;57789;53.868;10.728;2023-11-22T00:42:31;1.60;99.90
70368;DHT22;57789;53.868;10.728;2023-11-22T00:44:57;1.70;99.90
70368;DHT22;57789;53.868;10.728;2023-11-22T00:47:23;1.70;99.90
70368;DHT22;57789;53.868;10.728;2023-11-22T00:49:48;1.70;99.90
70368;DHT22;57789;53.868;10.728;2023-11-22T00:52:14;1.80;99.90
70368;DHT22;57789;53.868;10.728;2023-11-22T00:54:40;1.90;99.90
70368;DHT22;57789;53.868;10.728;2023-11-22T00:57:06;1.90;99.90
70368;DHT22;57789;53.868;10.728;2023-11-22T00:59:32;2.00;99.90
70368;DHT22;57789;53.868;10.728;2023-11-22T01:01:58;2.10;99.90
70368;DHT22;57789;53.868;10.728;2023-11-22T01:04:24;2.00;99.90
70368;DHT22;57789;53.868;10.728;2023-11-22T01:06:49;2.10;99.90
70368;DHT22;57789;53.868;10.728;2023-11-22T01:09:15;2.00;99.90
70368;DHT22;57789;53.868;10.728;2023-11-22T01:11:41;2.10;99.90
70368;DHT22;57789;53.868;10.728;2023-11-22T01:14:09;2.10;99.90
70368;DHT22;57789;53.868;10.728;2023-11-22T01:16:34;2.10;99.90
70368;DHT22;57789;53.868;10.728;2023-11-22T01:19:02;2.10;99.90
70368;DHT22;57789;53.868;10.728;2023-11-22T01:21:28;2.20;99.90
70368;DHT22;57789;53.868;10.728;2023-11-22T01:23:53;2.10;99.90
70368;DHT22;57789;53.868;10.728;2023-11-22T01:26:19;2.10;99.90
70368;DHT22;57789;53.868;10.728;2023-11-22T01:28:45;2.10;99.90
70368;DHT22;57789;53.868;10.728;2023-11-22T01:31:12;2.10;99.90
70368;DHT22;57789;53.868;10.728;2023-11-22T01:33:38;2.20;99.90
70368;DHT22;57789;53.868;10.728;2023-11-22T01:36:04;2.10;99.90
70368;DHT22;57789;53.868;10.728;2023-11-22T01:38:30;1.90;99.90
70368;DHT22;57789;53.868;10.728;2023-11-22T01:40:56;1.90;99.90
70368;DHT22;57789;53.868;10.728;2023-11-22T01:43:23;1.90;99.90
70368;DHT22;57789;53.868;10.728;2023-11-22T01:45:54;1.90;99.90
70368;DHT22;57789;53.868;10.728;2023-11-22T01:48:20;2.00;99.90
70368;DHT22;57789;53.868;10.728;2023-11-22T01:50:46;2.20;99.90
70368;DHT22;57789;53.868;10.728;2023-11-22T01:53:13;2.10;99.90
70368;DHT22;57789;53.868;10.728;2023-11-22T01:55:43;2.20;99.90
70368;DHT22;57789;53.868;10.728;2023-11-22T01:58:09;2.30;99.90
70368;DHT22;57789;53.868;10.728;2023-11-22T02:00:49;2.30;99.90
70368;DHT22;57789;53.868;10.728;2023-11-22T02:03:15;2.10;99.90
70368;DHT22;57789;53.868;10.728;2023-11-22T02:05:44;2.00;99.90
70368;DHT22;57789;53.868;10.728;2023-11-22T02:08:11;2.00;99.90
70368;DHT22;57789;53.868;10.728;2023-11-22T02:10:37;2.00;99.90
70368;DHT22;57789;53.868;10.728;2023-11-22T02:13:06;2.20;99.90
70368;DHT22;57789;53.868;10.728;2023-11-22T02:15:36;2.20;99.90
70368;DHT22;57789;53.868;10.728;2023-11-22T02:18:02;2.20;99.90
70368;DHT22;57789;53.868;10.728;2023-11-22T02:20:29;2.30;99.90
70368;DHT22;57789;53.868;10.728;2023-11-22T02:22:55;2.40;99.90
70368;DHT22;57789;53.868;10.728;2023-11-22T02:25:22;2.40;99.90
70368;DHT22;57789;53.868;10.728;2023-11-22T02:27:48;2.40;99.90
70368;DHT22;57789;53.868;10.728;2023-11-22T02:30:14;2.40;99.90
70368;DHT22;57789;53.868;10.728;2023-11-22T02:32:41;2.30;99.90
70368;DHT22;57789;53.868;10.728;2023-11-22T02:35:06;2.30;99.90
70368;DHT22;57789;53.868;10.728;2023-11-22T02:37:36;2.30;99.90
70368;DHT22;57789;53.868;10.728;2023-11-22T02:40:15;2.20;99.90
70368;DHT22;57789;53.868;10.728;2023-11-22T02:42:43;2.10;99.90
70368;DHT22;57789;53.868;10.728;2023-11-22T02:45:09;2.20;99.90
70368;DHT22;57789;53.868;10.728;2023-11-22T02:47:35;2.30;99.90
70368;DHT22;57789;53.868;10.728;2023-11-22T02:50:04;2.30;99.90
70368;DHT22;57789;53.868;10.728;2023-11-22T02:52:31;2.20;99.90
70368;DHT22;57789;53.868;10.728;2023-11-22T02:54:58;2.10;99.90
70368;DHT22;57789;53.868;10.728;2023-11-22T02:57:24;2.20;99.90
70368;DHT22;57789;53.868;10.728;2023-11-22T02:59:50;2.20;99.90
70368;DHT22;57789;53.868;10.728;2023-11-22T03:02:16;2.20;99.90
70368;DHT22;57789;53.868;10.728;2023-11-22T03:04:44;2.30;99.90
70368;DHT22;57789;53.868;10.728;2023-11-22T03:07:10;2.30;99.90
70368;DHT22;57789;53.868;10.728;2023-11-22T03:09:36;2.20;99.90
70368;DHT22;57789;53.868;10.728;2023-11-22T03:12:02;2.20;99.90
70368;DHT22;57789;53.868;10.728;2023-11-22T03:14:28;2.10;99.90
70368;DHT22;57789;53.868;10.728;2023-11-22T03:16:54;2.20;99.90
70368;DHT22;57789;53.868;10.728;2023-11-22T03:19:20;2.20;99.90
70368;DHT22;57789;53.868;10.728;2023-11-22T03:21:46;2.30;99.90
70368;DHT22;57789;53.868;10.728;2023-11-22T03:24:12;2.30;99.90
70368;DHT22;57789;53.868;10.728;2023-11-22T03:26:38;2.10;99.90
70368;DHT22;57789;53.868;10.728;2023-11-22T03:29:05;2.30;99.90
70368;DHT22;57789;53.868;10.728;2023-11-22T03:31:30;2.20;99.90
70368;DHT22;57789;53.868;10.728;2023-11-22T03:33:58;2.10;99.90
70368;DHT22;57789;53.868;10.728;2023-11-22T03:36:23;2.00;99.90
70368;DHT22;57789;53.868;10.728;2023-11-22T03:38:50;1.90;99.90
70368;DHT22;57789;53.868;10.728;2023-11-22T03:41:16;1.70;99.90
70368;DHT22;57789;53.868;10.728;2023-11-22T03:43:46;1.60;99.90
70368;DHT22;57789;53.868;10.728;2023-11-22T03:46:12;1.50;99.90
70368;DHT22;57789;53.868;10.728;2023-11-22T03:48:38;1.70;99.90
70368;DHT22;57789;53.868;10.728;2023-11-22T03:51:04;1.80;99.90
70368;DHT22;57789;53.868;10.728;2023-11-22T03:53:30;2.00;99.90
70368;DHT22;57789;53.868;10.728;2023-11-22T03:55:55;2.10;99.90
70368;DHT22;57789;53.868;10.728;2023-11-22T03:58:21;1.80;99.90
70368;DHT22;57789;53.868;10.728;2023-11-22T04:00:47;1.70;99.90
70368;DHT22;57789;53.868;10.728;2023-11-22T04:03:13;1.90;99.90
70368;DHT22;57789;53.868;10.728;2023-11-22T04:05:39;2.00;99.90
70368;DHT22;57789;53.868;10.728;2023-11-22T04:08:05;2.10;99.90
70368;DHT22;57789;53.868;10.728;2023-11-22T04:10:30;2.10;99.90
70368;DHT22;57789;53.868;10.728;2023-11-22T04:12:56;2.10;99.90
70368;DHT22;57789;53.868;10.728;2023-11-22T04:15:22;2.10;99.90
70368;DHT22;57789;53.868;10.728;2023-11-22T04:17:48;2.10;99.90
70368;DHT22;57789;53.868;10.728;2023-11-22T04:20:14;2.00;99.90
70368;DHT22;57789;53.868;10.728;2023-11-22T04:22:44;2.00;99.90
70368;DHT22;57789;53.868;10.728;2023-11-22T04:25:13;1.90;99.90
70368;DHT22;57789;53.868;10.728;2023-11-22T04:27:39;1.90;99.90
70368;DHT22;57789;53.868;10.728;2023-11-22T04:30:07;1.80;99.90
70368;DHT22;57789;53.868;10.728;2023-11-22T04:32:49;1.50;99.90
70368;DHT22;57789;53.868;10.728;2023-11-22T04:35:14;1.70;99.90
70368;DHT22;57789;53.868;10.728;2023-11-22T04:37:40;1.90;99.90
70368;DHT22;57789;53.868;10.728;2023-11-22T04:40:06;2.00;99.90
70368;DHT22;57789;53.868;10.728;2023-11-22T04:42:35;1.90;99.90
70368;DHT22;57789;53.868;10.728;2023-11-22T04:45:03;1.90;99.90
70368;DHT22;57789;53.868;10.728;2023-11-22T04:47:29;1.70;99.90
70368;DHT22;57789;53.868;10.728;2023-11-22T04:49:55;1.50;99.90
70368;DHT22;57789;53.868;10.728;2023-11-22T04:52:20;1.40;99.90
70368;DHT22;57789;53.868;10.728;2023-11-22T04:54:46;1.20;99.90
70368;DHT22;57789;53.868;10.728;2023-11-22T04:57:12;1.30;99.90
70368;DHT22;57789;53.868;10.728;2023-11-22T04:59:37;1.50;99.90
70368;DHT22;57789;53.868;10.728;2023-11-22T05:02:04;1.40;99.90
70368;DHT22;57789;53.868;10.728;2023-11-22T05:04:29;1.10;99.90
70368;DHT22;57789;53.868;10.728;2023-11-22T05:06:56;1.00;99.90
70368;DHT22;57789;53.868;10.728;2023-11-22T05:09:21;0.80;99.90
70368;DHT22;57789;53.868;10.728;2023-11-22T05:11:47;0.90;99.90
70368;DHT22;57789;53.868;10.728;2023-11-22T05:14:13;0.80;99.90
70368;DHT22;57789;53.868;10.728;2023-11-22T05:16:39;1.00;99.90
70368;DHT22;57789;53.868;10.728;2023-11-22T05:19:04;1.10;99.90
70368;DHT22;57789;53.868;10.728;2023-11-22T05:21:31;1.10;99.90
70368;DHT22;57789;53.868;10.728;2023-11-22T05:23:58;1.10;99.90
70368;DHT22;57789;53.868;10.728;2023-11-22T05:26:24;1.30;99.90
70368;DHT22;57789;53.868;10.728;2023-11-22T05:28:50;1.30;99.90
70368;DHT22;57789;53.868;10.728;2023-11-22T05:31:16;1.10;99.90
70368;DHT22;57789;53.868;10.728;2023-11-22T05:33:42;1.20;99.90
70368;DHT22;57789;53.868;10.728;2023-11-22T05:36:08;1.40;99.90
70368;DHT22;57789;53.868;10.728;2023-11-22T05:38:34;1.40;99.90
70368;DHT22;57789;53.868;10.728;2023-11-22T05:41:00;1.40;99.90
70368;DHT22;57789;53.868;10.728;2023-11-22T05:43:26;1.10;99.90
70368;DHT22;57789;53.868;10.728;2023-11-22T05:45:55;1.20;99.90
70368;DHT22;57789;53.868;10.728;2023-11-22T05:48:21;1.00;99.90
70368;DHT22;57789;53.868;10.728;2023-11-22T05:50:48;0.80;99.90
70368;DHT22;57789;53.868;10.728;2023-11-22T05:53:14;1.10;99.90
70368;DHT22;57789;53.868;10.728;2023-11-22T05:55:48;1.20;99.90
70368;DHT22;57789;53.868;10.728;2023-11-22T05:58:14;1.10;99.90
70368;DHT22;57789;53.868;10.728;2023-11-22T06:00:50;1.40;99.90
70368;DHT22;57789;53.868;10.728;2023-11-22T06:03:16;1.20;99.90
70368;DHT22;57789;53.868;10.728;2023-11-22T06:05:42;1.30;99.90
70368;DHT22;57789;53.868;10.728;2023-11-22T06:08:07;1.40;99.90
70368;DHT22;57789;53.868;10.728;2023-11-22T06:10:34;1.40;99.90
70368;DHT22;57789;53.868;10.728;2023-11-22T06:13:00;1.30;99.90
70368;DHT22;57789;53.868;10.728;2023-11-22T06:15:26;1.20;99.90
70368;DHT22;57789;53.868;10.728;2023-11-22T06:17:51;1.10;99.90
70368;DHT22;57789;53.868;10.728;2023-11-22T06:20:18;0.90;99.90
70368;DHT22;57789;53.868;10.728;2023-11-22T06:22:44;0.80;99.90
70368;DHT22;57789;53.868;10.728;2023-11-22T06:25:10;0.90;99.90
70368;DHT22;57789;53.868;10.728;2023-11-22T06:27:38;1.00;99.90
70368;DHT22;57789;53.868;10.728;2023-11-22T06:30:06;0.90;99.90
70368;DHT22;57789;53.868;10.728;2023-11-22T06:32:32;1.10;99.90
70368;DHT22;57789;53.868;10.728;2023-11-22T06:34:59;1.00;99.90
70368;DHT22;57789;53.868;10.728;2023-11-22T06:37:25;1.10;99.90
70368;DHT22;57789;53.868;10.728;2023-11-22T06:39:51;1.00;99.90
70368;DHT22;57789;53.868;10.728;2023-11-22T06:42:17;0.80;99.90
70368;DHT22;57789;53.868;10.728;2023-11-22T06:44:43;0.60;99.90
70368;DHT22;57789;53.868;10.728;2023-11-22T06:47:09;0.50;99.90
70368;DHT22;57789;53.868;10.728;2023-11-22T06:49:35;0.40;99.90
70368;DHT22;57789;53.868;10.728;2023-11-22T06:52:01;0.30;99.90
70368;DHT22;57789;53.868;10.728;2023-11-22T06:54:26;0.20;99.90
70368;DHT22;57789;53.868;10.728;2023-11-22T06:56:52;0.20;99.90
70368;DHT22;57789;53.868;10.728;2023-11-22T06:59:18;0.10;99.90
70368;DHT22;57789;53.868;10.728;2023-11-22T07:01:44;0.10;99.90
70368;DHT22;57789;53.868;10.728;2023-11-22T07:04:10;0.20;99.90
70368;DHT22;57789;53.868;10.728;2023-11-22T07:06:37;0.10;99.90
70368;DHT22;57789;53.868;10.728;2023-11-22T07:09:04;0.20;99.90
70368;DHT22;57789;53.868;10.728;2023-11-22T07:11:29;0.20;99.90
70368;DHT22;57789;53.868;10.728;2023-11-22T07:13:56;0.10;99.90
70368;DHT22;57789;53.868;10.728;2023-11-22T07:16:23;0.50;99.90
70368;DHT22;57789;53.868;10.728;2023-11-22T07:18:50;0.70;99.90
70368;DHT22;57789;53.868;10.728;2023-11-22T07:21:16;0.90;99.90
70368;DHT22;57789;53.868;10.728;2023-11-22T07:23:46;0.90;99.90
70368;DHT22;57789;53.868;10.728;2023-11-22T07:26:12;0.80;99.90
70368;DHT22;57789;53.868;10.728;2023-11-22T07:28:40;1.00;99.90
70368;DHT22;57789;53.868;10.728;2023-11-22T07:31:09;1.00;99.90
70368;DHT22;57789;53.868;10.728;2023-11-22T07:33:35;1.10;99.90
70368;DHT22;57789;53.868;10.728;2023-11-22T07:36:01;1.10;99.90
70368;DHT22;57789;53.868;10.728;2023-11-22T07:38:28;1.20;99.90
70368;DHT22;57789;53.868;10.728;2023-11-22T07:40:55;1.30;99.90
70368;DHT22;57789;53.868;10.728;2023-11-22T07:43:21;1.40;99.90
70368;DHT22;57789;53.868;10.728;2023-11-22T07:45:47;1.40;99.90
70368;DHT22;57789;53.868;10.728;2023-11-22T07:48:14;1.50;99.90
70368;DHT22;57789;53.868;10.728;2023-11-22T07:50:40;1.50;99.90
70368;DHT22;57789;53.868;10.728;2023-11-22T07:53:12;1.60;99.90
70368;DHT22;57789;53.868;10.728;2023-11-22T07:55:38;1.60;99.90
70368;DHT22;57789;53.868;10.728;2023-11-22T07:58:04;1.60;99.90
70368;DHT22;57789;53.868;10.728;2023-11-22T08:00:33;1.60;99.90
70368;DHT22;57789;53.868;10.728;2023-11-22T08:03:02;1.60;99.90
70368;DHT22;57789;53.868;10.728;2023-11-22T08:05:31;1.50;99.90
70368;DHT22;57789;53.868;10.728;2023-11-22T08:08:04;1.60;99.90
70368;DHT22;57789;53.868;10.728;2023-11-22T08:10:36;1.60;99.90
70368;DHT22;57789;53.868;10.728;2023-11-22T08:13:03;1.80;99.90
70368;DHT22;57789;53.868;10.728;2023-11-22T08:15:29;2.00;99.90
70368;DHT22;57789;53.868;10.728;2023-11-22T08:17:58;2.10;99.90
70368;DHT22;57789;53.868;10.728;2023-11-22T08:20:26;2.20;99.90
70368;DHT22;57789;53.868;10.728;2023-11-22T08:22:52;2.10;99.90
70368;DHT22;57789;53.868;10.728;2023-11-22T08:25:19;1.90;99.90
70368;DHT22;57789;53.868;10.728;2023-11-22T08:27:45;1.90;99.90
70368;DHT22;57789;53.868;10.728;2023-11-22T08:30:11;2.00;99.90
70368;DHT22;57789;53.868;10.728;2023-11-22T08:32:42;1.90;99.90
70368;DHT22;57789;53.868;10.728;2023-11-22T08:35:09;1.80;99.90
70368;DHT22;57789;53.868;10.728;2023-11-22T08:37:35;1.70;99.90
70368;DHT22;57789;53.868;10.728;2023-11-22T08:40:05;1.70;99.90
70368;DHT22;57789;53.868;10.728;2023-11-22T08:42:31;1.70;99.90
70368;DHT22;57789;53.868;10.728;2023-11-22T08:44:58;1.70;99.90
70368;DHT22;57789;53.868;10.728;2023-11-22T08:47:24;1.70;99.90
70368;DHT22;57789;53.868;10.728;2023-11-22T08:49:49;1.80;99.90
70368;DHT22;57789;53.868;10.728;2023-11-22T08:52:15;1.80;99.90
70368;DHT22;57789;53.868;10.728;2023-11-22T08:54:41;1.80;99.90
70368;DHT22;57789;53.868;10.728;2023-11-22T08:57:08;1.90;99.90
70368;DHT22;57789;53.868;10.728;2023-11-22T08:59:40;1.90;99.90
70368;DHT22;57789;53.868;10.728;2023-11-22T09:02:05;1.90;99.90
70368;DHT22;57789;53.868;10.728;2023-11-22T09:04:33;1.90;99.90
70368;DHT22;57789;53.868;10.728;2023-11-22T09:06:58;1.90;99.90
70368;DHT22;57789;53.868;10.728;2023-11-22T09:09:24;1.90;99.90
70368;DHT22;57789;53.868;10.728;2023-11-22T09:11:59;2.00;99.90
70368;DHT22;57789;53.868;10.728;2023-11-22T09:14:25;1.90;99.90
70368;DHT22;57789;53.868;10.728;2023-11-22T09:16:52;2.00;99.90
70368;DHT22;57789;53.868;10.728;2023-11-22T09:19:23;2.00;99.90
70368;DHT22;57789;53.868;10.728;2023-11-22T09:21:51;2.00;99.90
70368;DHT22;57789;53.868;10.728;2023-11-22T09:24:17;2.10;99.90
70368;DHT22;57789;53.868;10.728;2023-11-22T09:26:43;2.10;99.90
70368;DHT22;57789;53.868;10.728;2023-11-22T09:29:12;2.10;99.90
70368;DHT22;57789;53.868;10.728;2023-11-22T09:31:40;2.20;99.90
70368;DHT22;57789;53.868;10.728;2023-11-22T09:34:08;2.30;99.90
70368;DHT22;57789;53.868;10.728;2023-11-22T09:36:34;2.40;99.90
70368;DHT22;57789;53.868;10.728;2023-11-22T09:39:00;2.50;99.90
70368;DHT22;57789;53.868;10.728;2023-11-22T09:41:28;2.50;99.90
70368;DHT22;57789;53.868;10.728;2023-11-22T09:43:54;2.60;99.90
70368;DHT22;57789;53.868;10.728;2023-11-22T09:46:23;2.70;99.90
70368;DHT22;57789;53.868;10.728;2023-11-22T09:48:49;2.80;99.90
70368;DHT22;57789;53.868;10.728;2023-11-22T09:51:20;2.90;99.90
70368;DHT22;57789;53.868;10.728;2023-11-22T09:53:55;2.90;99.90
70368;DHT22;57789;53.868;10.728;2023-11-22T09:56:27;3.00;99.90
70368;DHT22;57789;53.868;10.728;2023-11-22T09:58:54;3.00;99.90
70368;DHT22;57789;53.868;10.728;2023-11-22T10:01:22;3.00;99.90
70368;DHT22;57789;53.868;10.728;2023-11-22T10:03:49;3.00;99.90
70368;DHT22;57789;53.868;10.728;2023-11-22T10:06:18;3.00;99.90
70368;DHT22;57789;53.868;10.728;2023-11-22T10:08:44;3.00;99.90
70368;DHT22;57789;53.868;10.728;2023-11-22T10:11:16;3.00;99.90
70368;DHT22;57789;53.868;10.728;2023-11-22T10:13:51;3.10;99.90
70368;DHT22;57789;53.868;10.728;2023-11-22T10:16:18;3.00;99.90
70368;DHT22;57789;53.868;10.728;2023-11-22T10:18:49;3.00;99.90
70368;DHT22;57789;53.868;10.728;2023-11-22T10:21:25;3.10;99.90
70368;DHT22;57789;53.868;10.728;2023-11-22T10:23:56;3.20;99.90
70368;DHT22;57789;53.868;10.728;2023-11-22T10:26:22;3.20;99.90
70368;DHT22;57789;53.868;10.728;2023-11-22T10:28:55;3.20;99.90
70368;DHT22;57789;53.868;10.728;2023-11-22T10:31:23;3.30;99.90
70368;DHT22;57789;53.868;10.728;2023-11-22T10:33:50;3.30;99.90
70368;DHT22;57789;53.868;10.728;2023-11-22T10:36:16;3.20;99.90
70368;DHT22;57789;53.868;10.728;2023-11-22T10:38:48;3.20;99.90
70368;DHT22;57789;53.868;10.728;2023-11-22T10:41:16;3.20;99.90
70368;DHT22;57789;53.868;10.728;2023-11-22T10:43:44;3.20;99.90
70368;DHT22;57789;53.868;10.728;2023-11-22T10:46:12;3.30;99.90
70368;DHT22;57789;53.868;10.728;2023-11-22T10:48:38;3.30;99.90
70368;DHT22;57789;53.868;10.728;2023-11-22T10:51:05;3.40;99.90
70368;DHT22;57789;53.868;10.728;2023-11-22T10:53:35;3.40;99.90
70368;DHT22;57789;53.868;10.728;2023-11-22T10:56:09;3.40;99.90
70368;DHT22;57789;53.868;10.728;2023-11-22T10:58:43;3.40;99.90
70368;DHT22;57789;53.868;10.728;2023-11-22T11:01:12;3.40;99.90
70368;DHT22;57789;53.868;10.728;2023-11-22T11:03:40;3.50;99.90
70368;DHT22;57789;53.868;10.728;2023-11-22T11:06:10;3.50;99.90
70368;DHT22;57789;53.868;10.728;2023-11-22T11:08:39;3.40;99.90
70368;DHT22;57789;53.868;10.728;2023-11-22T11:11:05;3.40;99.90
70368;DHT22;57789;53.868;10.728;2023-11-22T11:13:32;3.30;99.90
70368;DHT22;57789;53.868;10.728;2023-11-22T11:15:58;3.30;99.90
70368;DHT22;57789;53.868;10.728;2023-11-22T11:18:25;3.30;99.90
70368;DHT22;57789;53.868;10.728;2023-11-22T11:20:57;3.40;99.90
70368;DHT22;57789;53.868;10.728;2023-11-22T11:23:27;3.30;99.90
70368;DHT22;57789;53.868;10.728;2023-11-22T11:25:58;3.40;99.90
70368;DHT22;57789;53.868;10.728;2023-11-22T11:28:25;3.30;99.90
70368;DHT22;57789;53.868;10.728;2023-11-22T11:30:53;3.30;99.90
70368;DHT22;57789;53.868;10.728;2023-11-22T11:35:52;3.30;99.90
70368;DHT22;57789;53.868;10.728;2023-11-22T11:38:21;3.30;99.90
70368;DHT22;57789;53.868;10.728;2023-11-22T11:40:48;3.30;99.90
70368;DHT22;57789;53.868;10.728;2023-11-22T11:43:14;3.40;99.90
70368;DHT22;57789;53.868;10.728;2023-11-22T11:45:42;3.40;99.90
70368;DHT22;57789;53.868;10.728;2023-11-22T11:48:16;3.60;99.90
70368;DHT22;57789;53.868;10.728;2023-11-22T11:50:43;3.80;99.90
70368;DHT22;57789;53.868;10.728;2023-11-22T11:53:09;3.80;99.90
70368;DHT22;57789;53.868;10.728;2023-11-22T11:55:36;3.90;99.90
70368;DHT22;57789;53.868;10.728;2023-11-22T11:58:05;3.80;99.90
70368;DHT22;57789;53.868;10.728;2023-11-22T12:00:31;3.70;99.90
70368;DHT22;57789;53.868;10.728;2023-11-22T12:02:57;3.70;99.90
70368;DHT22;57789;53.868;10.728;2023-11-22T12:05:22;3.80;99.90
70368;DHT22;57789;53.868;10.728;2023-11-22T12:07:50;3.80;99.90
70368;DHT22;57789;53.868;10.728;2023-11-22T12:10:16;3.80;99.90
70368;DHT22;57789;53.868;10.728;2023-11-22T12:12:43;3.80;99.90
70368;DHT22;57789;53.868;10.728;2023-11-22T12:15:10;3.80;99.90
70368;DHT22;57789;53.868;10.728;2023-11-22T12:17:36;3.70;99.90
70368;DHT22;57789;53.868;10.728;2023-11-22T12:20:16;3.80;99.90
70368;DHT22;57789;53.868;10.728;2023-11-22T12:22:46;3.90;99.90
70368;DHT22;57789;53.868;10.728;2023-11-22T12:25:13;3.80;99.90
70368;DHT22;57789;53.868;10.728;2023-11-22T12:27:40;3.80;99.90
70368;DHT22;57789;53.868;10.728;2023-11-22T12:30:08;3.90;99.90
70368;DHT22;57789;53.868;10.728;2023-11-22T12:32:40;3.80;99.90
70368;DHT22;57789;53.868;10.728;2023-11-22T12:35:07;3.90;99.90
70368;DHT22;57789;53.868;10.728;2023-11-22T12:37:34;3.80;99.90
70368;DHT22;57789;53.868;10.728;2023-11-22T12:40:09;3.70;99.90
70368;DHT22;57789;53.868;10.728;2023-11-22T12:42:48;3.80;99.90
70368;DHT22;57789;53.868;10.728;2023-11-22T12:45:25;3.70;99.90
70368;DHT22;57789;53.868;10.728;2023-11-22T12:47:52;3.80;99.90
70368;DHT22;57789;53.868;10.728;2023-11-22T12:53:09;3.90;99.90
70368;DHT22;57789;53.868;10.728;2023-11-22T12:55:37;3.80;99.90
70368;DHT22;57789;53.868;10.728;2023-11-22T12:58:03;3.80;99.90
70368;DHT22;57789;53.868;10.728;2023-11-22T13:00:29;3.80;99.90
70368;DHT22;57789;53.868;10.728;2023-11-22T13:02:58;3.80;99.90
70368;DHT22;57789;53.868;10.728;2023-11-22T13:05:24;3.80;99.90
70368;DHT22;57789;53.868;10.728;2023-11-22T13:07:50;3.80;99.90
70368;DHT22;57789;53.868;10.728;2023-11-22T13:10:18;3.90;99.90
70368;DHT22;57789;53.868;10.728;2023-11-22T13:12:44;4.00;99.90
70368;DHT22;57789;53.868;10.728;2023-11-22T13:15:11;3.90;99.90
70368;DHT22;57789;53.868;10.728;2023-11-22T13:17:38;3.90;99.90
70368;DHT22;57789;53.868;10.728;2023-11-22T13:20:08;3.80;99.90
70368;DHT22;57789;53.868;10.728;2023-11-22T13:22:40;3.80;99.90
70368;DHT22;57789;53.868;10.728;2023-11-22T13:25:09;3.80;99.90
70368;DHT22;57789;53.868;10.728;2023-11-22T13:27:45;3.70;99.90
70368;DHT22;57789;53.868;10.728;2023-11-22T13:30:12;3.70;99.90
70368;DHT22;57789;53.868;10.728;2023-11-22T13:32:40;3.70;99.90
70368;DHT22;57789;53.868;10.728;2023-11-22T13:35:09;3.70;99.90
70368;DHT22;57789;53.868;10.728;2023-11-22T13:37:40;3.70;99.90
70368;DHT22;57789;53.868;10.728;2023-11-22T13:40:14;3.70;99.90
70368;DHT22;57789;53.868;10.728;2023-11-22T13:42:41;3.70;99.90
70368;DHT22;57789;53.868;10.728;2023-11-22T13:45:08;3.60;99.90
70368;DHT22;57789;53.868;10.728;2023-11-22T13:47:34;3.70;99.90
70368;DHT22;57789;53.868;10.728;2023-11-22T13:50:00;3.70;99.90
70368;DHT22;57789;53.868;10.728;2023-11-22T13:52:26;3.70;99.90
70368;DHT22;57789;53.868;10.728;2023-11-22T13:54:51;3.70;99.90
70368;DHT22;57789;53.868;10.728;2023-11-22T13:57:21;3.60;99.90
70368;DHT22;57789;53.868;10.728;2023-11-22T13:59:47;3.60;99.90
70368;DHT22;57789;53.868;10.728;2023-11-22T14:02:13;3.60;99.90
70368;DHT22;57789;53.868;10.728;2023-11-22T14:04:38;3.60;99.90
70368;DHT22;57789;53.868;10.728;2023-11-22T14:07:05;3.50;99.90
70368;DHT22;57789;53.868;10.728;2023-11-22T14:09:32;3.50;99.90
70368;DHT22;57789;53.868;10.728;2023-11-22T14:12:02;3.50;99.90
70368;DHT22;57789;53.868;10.728;2023-11-22T14:14:28;3.50;99.90
70368;DHT22;57789;53.868;10.728;2023-11-22T14:16:54;3.50;99.90
70368;DHT22;57789;53.868;10.728;2023-11-22T14:19:19;3.50;99.90
70368;DHT22;57789;53.868;10.728;2023-11-22T14:21:45;3.50;99.90
70368;DHT22;57789;53.868;10.728;2023-11-22T14:24:11;3.50;99.90
70368;DHT22;57789;53.868;10.728;2023-11-22T14:26:38;3.50;99.90
70368;DHT22;57789;53.868;10.728;2023-11-22T14:29:03;3.50;99.90
70368;DHT22;57789;53.868;10.728;2023-11-22T14:31:32;3.50;99.90
70368;DHT22;57789;53.868;10.728;2023-11-22T14:33:58;3.50;99.90
70368;DHT22;57789;53.868;10.728;2023-11-22T14:36:24;3.50;99.90
70368;DHT22;57789;53.868;10.728;2023-11-22T14:38:52;3.50;99.90
70368;DHT22;57789;53.868;10.728;2023-11-22T14:41:22;3.40;99.90
70368;DHT22;57789;53.868;10.728;2023-11-22T14:43:48;3.40;99.90
70368;DHT22;57789;53.868;10.728;2023-11-22T14:46:14;3.30;99.90
70368;DHT22;57789;53.868;10.728;2023-11-22T14:48:39;3.30;99.90
70368;DHT22;57789;53.868;10.728;2023-11-22T14:51:05;3.30;99.90
70368;DHT22;57789;53.868;10.728;2023-11-22T14:53:31;3.30;99.90
70368;DHT22;57789;53.868;10.728;2023-11-22T14:55:56;3.30;99.90
70368;DHT22;57789;53.868;10.728;2023-11-22T14:58:22;3.30;99.90
70368;DHT22;57789;53.868;10.728;2023-11-22T15:00:48;3.30;99.90
70368;DHT22;57789;53.868;10.728;2023-11-22T15:03:14;3.30;99.90
70368;DHT22;57789;53.868;10.728;2023-11-22T15:05:40;3.20;99.90
70368;DHT22;57789;53.868;10.728;2023-11-22T15:08:07;3.20;99.90
70368;DHT22;57789;53.868;10.728;2023-11-22T15:10:34;3.20;99.90
70368;DHT22;57789;53.868;10.728;2023-11-22T15:13:00;3.10;99.90
70368;DHT22;57789;53.868;10.728;2023-11-22T15:15:27;3.10;99.90
70368;DHT22;57789;53.868;10.728;2023-11-22T15:17:53;3.00;99.90
70368;DHT22;57789;53.868;10.728;2023-11-22T15:20:19;3.00;99.90
70368;DHT22;57789;53.868;10.728;2023-11-22T15:22:44;3.00;99.90
70368;DHT22;57789;53.868;10.728;2023-11-22T15:25:11;3.00;99.90
70368;DHT22;57789;53.868;10.728;2023-11-22T15:27:37;3.00;99.90
70368;DHT22;57789;53.868;10.728;2023-11-22T15:30:03;3.00;99.90
70368;DHT22;57789;53.868;10.728;2023-11-22T15:32:29;3.00;99.90
70368;DHT22;57789;53.868;10.728;2023-11-22T15:34:55;3.10;99.90